Summit, New Jersey
Current Conditions -  °F | °C
As of 2:55 AM on Friday 19 Dec 2014 (Local Time) from KMMU Reporting Station
NA  
Wind Chill: 34°   Ceiling: NA
Heat Index: 39°   Visibility: 10mi
Dew Point: 25°   Wind: 8mph
Humidity: 56%   Direction: 290°WNW
Pressure: 29.99"   Gusts: NA
Location:  40.72°N, 74.36°W
Report Text: KMMU 190755Z AUTO 29007KT 10SM 04/M04 A2999 RMK AO2
Loading
Personal Weather Stations






























Interactive Weather Map New forecast layout! Learn more

10-Day Weather Forecast

Advertisements
Track Severe Weather on mobile